createdAt,value
2018-08-08T00:00:58.456Z,1000.75
2018-08-08T00:01:58.463Z,1000.76
2018-08-08T00:02:58.489Z,1000.75
2018-08-08T00:03:58.439Z,1000.73
2018-08-08T00:04:58.443Z,1000.73
2018-08-08T00:05:58.466Z,1000.68
2018-08-08T00:06:58.464Z,1000.64
2018-08-08T00:07:58.475Z,1000.66
2018-08-08T00:08:58.453Z,1000.69
2018-08-08T00:09:58.488Z,1000.71
2018-08-08T00:10:58.518Z,1000.75
2018-08-08T00:11:58.513Z,1000.75
2018-08-08T00:12:58.549Z,1000.83
2018-08-08T00:13:58.479Z,1000.82
2018-08-08T00:14:58.502Z,1000.86
2018-08-08T00:15:58.501Z,1000.89
2018-08-08T00:16:58.516Z,1000.86
2018-08-08T00:17:58.580Z,1000.85
2018-08-08T00:18:58.569Z,1000.88
2018-08-08T00:19:58.567Z,1000.86
2018-08-08T00:20:58.573Z,1000.86
2018-08-08T00:21:58.513Z,1000.88
2018-08-08T00:22:58.567Z,1000.86
2018-08-08T00:23:58.554Z,1000.88
2018-08-08T00:24:58.537Z,1000.89
2018-08-08T00:25:58.591Z,1000.88
2018-08-08T00:26:58.563Z,1000.89
2018-08-08T00:27:59.135Z,1000.88
2018-08-08T00:28:58.638Z,1000.86
2018-08-08T00:29:58.623Z,1000.84
2018-08-08T00:30:58.687Z,1000.84
2018-08-08T00:31:58.686Z,1000.81
2018-08-08T00:32:58.580Z,1000.81
2018-08-08T00:33:58.661Z,1000.84
2018-08-08T00:34:58.686Z,1000.86
2018-08-08T00:35:58.617Z,1000.86
2018-08-08T00:36:58.621Z,1000.89
2018-08-08T00:37:58.734Z,1000.85
2018-08-08T00:38:58.690Z,1000.85
2018-08-08T00:39:58.698Z,1000.84
2018-08-08T00:40:58.724Z,1000.77
2018-08-08T00:41:58.732Z,1000.70
2018-08-08T00:42:58.758Z,1000.68
2018-08-08T00:43:58.723Z,1000.64
2018-08-08T00:44:58.665Z,1000.64
2018-08-08T00:45:58.694Z,1000.62
2018-08-08T00:46:58.747Z,1000.62
2018-08-08T00:47:58.754Z,1000.60
2018-08-08T00:48:58.761Z,1000.58
2018-08-08T00:49:58.689Z,1000.59
2018-08-08T00:50:58.938Z,1000.58
2018-08-08T00:51:58.766Z,1000.59
2018-08-08T00:52:58.710Z,1000.59
2018-08-08T00:53:58.783Z,1000.54
2018-08-08T00:54:58.761Z,1000.53
2018-08-08T00:55:58.830Z,1000.51
2018-08-08T00:56:58.839Z,1000.50
2018-08-08T00:57:58.777Z,1000.52
2018-08-08T00:58:58.797Z,1000.48
2018-08-08T00:59:58.783Z,1000.51
2018-08-08T01:00:58.809Z,1000.52
2018-08-08T01:01:58.809Z,1000.55
2018-08-08T01:02:58.806Z,1000.56
2018-08-08T01:03:58.792Z,1000.55
2018-08-08T01:04:58.893Z,1000.56
2018-08-08T01:05:58.825Z,1000.58
2018-08-08T01:06:58.834Z,1000.55
2018-08-08T01:07:58.803Z,1000.56
2018-08-08T01:08:59.043Z,1000.56
2018-08-08T01:09:58.863Z,1000.58
2018-08-08T01:10:58.830Z,1000.55
2018-08-08T01:11:58.809Z,1000.55
2018-08-08T01:12:58.901Z,1000.55
2018-08-08T01:13:58.863Z,1000.55
2018-08-08T01:14:58.851Z,1000.56
2018-08-08T01:15:58.981Z,1000.54
2018-08-08T01:16:58.929Z,1000.53
2018-08-08T01:17:58.866Z,1000.53
2018-08-08T01:18:59.671Z,1000.49
2018-08-08T01:19:58.903Z,1000.51
2018-08-08T01:20:58.922Z,1000.45
2018-08-08T01:21:58.944Z,1000.46
2018-08-08T01:22:58.911Z,1000.43
2018-08-08T01:23:58.898Z,1000.48
2018-08-08T01:24:59.663Z,1000.42
2018-08-08T01:25:58.917Z,1000.41
2018-08-08T01:26:58.946Z,1000.47
2018-08-08T01:27:58.932Z,1000.49
2018-08-08T01:28:58.989Z,1000.47
2018-08-08T01:29:59.008Z,1000.47
2018-08-08T01:30:58.950Z,1000.46
2018-08-08T01:31:59.031Z,1000.50
2018-08-08T01:32:59.022Z,1000.53
2018-08-08T01:33:58.928Z,1000.52
2018-08-08T01:34:59.009Z,1000.46
2018-08-08T01:35:59.053Z,1000.44
2018-08-08T01:36:59.014Z,1000.49
2018-08-08T01:37:59.010Z,1000.50
2018-08-08T01:38:59.002Z,1000.59
2018-08-08T01:39:59.021Z,1000.77
2018-08-08T01:40:59.060Z,1000.99
2018-08-08T01:41:59.035Z,1001.07
2018-08-08T01:42:59.086Z,1001.17
2018-08-08T01:43:59.037Z,1001.22
2018-08-08T01:44:59.052Z,1001.24
2018-08-08T01:45:59.142Z,1001.18
2018-08-08T01:46:59.203Z,1001.06
2018-08-08T01:47:59.100Z,1000.97
2018-08-08T01:48:59.057Z,1001.00
2018-08-08T01:49:59.775Z,1001.17
2018-08-08T01:50:59.152Z,1001.30
2018-08-08T01:51:59.190Z,1001.40
2018-08-08T01:52:59.085Z,1001.42
2018-08-08T01:53:59.169Z,1001.38
2018-08-08T01:54:59.254Z,1001.29
2018-08-08T01:55:59.093Z,1001.23
2018-08-08T01:56:59.154Z,1001.25
2018-08-08T01:57:59.116Z,1001.24
2018-08-08T01:58:59.168Z,1001.23
2018-08-08T01:59:59.272Z,1001.26
2018-08-08T02:00:59.098Z,1001.24
2018-08-08T02:01:59.133Z,1001.21
2018-08-08T02:02:59.121Z,1001.23
2018-08-08T02:03:59.168Z,1001.23
2018-08-08T02:04:59.102Z,1001.23
2018-08-08T02:05:59.120Z,1001.22
2018-08-08T02:06:59.334Z,1001.21
2018-08-08T02:07:59.158Z,1001.25
2018-08-08T02:08:59.176Z,1001.22
2018-08-08T02:09:59.685Z,1001.21
2018-08-08T02:10:59.129Z,1001.22
2018-08-08T02:11:59.146Z,1001.22
2018-08-08T02:12:59.166Z,1001.17
2018-08-08T02:13:59.145Z,1001.19
2018-08-08T02:14:59.165Z,1001.14
2018-08-08T02:15:59.167Z,1001.16
2018-08-08T02:16:59.168Z,1001.12
2018-08-08T02:17:59.229Z,1001.08
2018-08-08T02:18:59.178Z,1001.09
2018-08-08T02:19:59.332Z,1001.13
2018-08-08T02:20:59.363Z,1001.14
2018-08-08T02:21:59.214Z,1001.14
2018-08-08T02:22:59.208Z,1001.14
2018-08-08T02:23:59.229Z,1001.13
2018-08-08T02:24:59.373Z,1001.11
2018-08-08T02:25:59.300Z,1001.11
2018-08-08T02:26:59.268Z,1001.09
2018-08-08T02:27:59.225Z,1001.03
2018-08-08T02:28:59.223Z,1001.02
2018-08-08T02:29:59.252Z,1001.07
2018-08-08T02:30:59.332Z,1001.06
2018-08-08T02:31:59.283Z,1001.07
2018-08-08T02:32:59.255Z,1001.14
2018-08-08T02:33:59.278Z,1001.15
2018-08-08T02:34:59.279Z,1001.25
2018-08-08T02:35:59.278Z,1001.28
2018-08-08T02:36:59.388Z,1001.38
2018-08-08T02:37:59.581Z,1001.45
2018-08-08T02:38:59.268Z,1001.58
2018-08-08T02:39:59.388Z,1001.71
2018-08-08T02:40:59.310Z,1001.83
2018-08-08T02:41:59.377Z,1001.89
2018-08-08T02:42:59.358Z,1001.96
2018-08-08T02:43:59.325Z,1001.88
2018-08-08T02:44:59.430Z,1001.83
2018-08-08T02:45:59.335Z,1001.70
2018-08-08T02:46:59.388Z,1001.63
2018-08-08T02:47:59.344Z,1001.54
2018-08-08T02:48:59.352Z,1001.52
2018-08-08T02:49:59.384Z,1001.43
2018-08-08T02:50:59.341Z,1001.38
2018-08-08T02:51:59.368Z,1001.32
2018-08-08T02:52:59.377Z,1001.30
2018-08-08T02:53:59.473Z,1001.24
2018-08-08T02:54:59.390Z,1001.21
2018-08-08T02:55:59.393Z,1001.21
2018-08-08T02:56:59.433Z,1001.13
2018-08-08T02:57:59.453Z,1001.13
2018-08-08T02:58:59.380Z,1001.13
2018-08-08T02:59:59.437Z,1001.14
2018-08-08T03:00:59.427Z,1001.15
2018-08-08T03:01:59.433Z,1001.12
2018-08-08T03:02:59.406Z,1001.14
2018-08-08T03:03:59.443Z,1001.14
2018-08-08T03:04:59.546Z,1001.13
2018-08-08T03:05:59.422Z,1001.19
2018-08-08T03:06:59.423Z,1001.29
2018-08-08T03:07:59.447Z,1001.36
2018-08-08T03:08:59.485Z,1001.38
2018-08-08T03:09:59.499Z,1001.33
2018-08-08T03:10:59.515Z,1001.34
2018-08-08T03:11:59.508Z,1001.28
2018-08-08T03:12:59.515Z,1001.28
2018-08-08T03:13:59.534Z,1001.31
2018-08-08T03:14:59.510Z,1001.31
2018-08-08T03:15:59.565Z,1001.35
2018-08-08T03:16:59.483Z,1001.39
2018-08-08T03:17:59.537Z,1001.46
2018-08-08T03:18:59.488Z,1001.53
2018-08-08T03:19:59.533Z,1001.58
2018-08-08T03:20:59.534Z,1001.56
2018-08-08T03:21:59.496Z,1001.57
2018-08-08T03:22:59.537Z,1001.57
2018-08-08T03:23:59.532Z,1001.60
2018-08-08T03:24:59.526Z,1001.62
2018-08-08T03:25:59.546Z,1001.64
2018-08-08T03:26:59.533Z,1001.67
2018-08-08T03:27:59.565Z,1001.69
2018-08-08T03:29:00.225Z,1001.64
2018-08-08T03:29:59.548Z,1001.61
2018-08-08T03:30:59.645Z,1001.63
2018-08-08T03:31:59.644Z,1001.63
2018-08-08T03:32:59.605Z,1001.68
2018-08-08T03:33:59.613Z,1001.66
2018-08-08T03:34:59.639Z,1001.70
2018-08-08T03:35:59.601Z,1001.66
2018-08-08T03:36:59.601Z,1001.70
2018-08-08T03:37:59.599Z,1001.73
2018-08-08T03:38:59.576Z,1001.71
2018-08-08T03:39:59.613Z,1001.76
2018-08-08T03:40:59.659Z,1001.80
2018-08-08T03:41:59.672Z,1001.83
2018-08-08T03:43:00.237Z,1001.86
2018-08-08T03:43:59.670Z,1001.86
2018-08-08T03:44:59.614Z,1001.96
2018-08-08T03:45:59.674Z,1002.03
2018-08-08T03:46:59.663Z,1002.10
2018-08-08T03:47:59.633Z,1002.19
2018-08-08T03:48:59.723Z,1002.22
2018-08-08T03:49:59.678Z,1002.31
2018-08-08T03:50:59.655Z,1002.31
2018-08-08T03:52:00.278Z,1002.32
2018-08-08T03:52:59.674Z,1002.35
2018-08-08T03:53:59.711Z,1002.35
2018-08-08T03:54:59.849Z,1002.37
2018-08-08T03:55:59.717Z,1002.48
2018-08-08T03:56:59.722Z,1002.52
2018-08-08T03:57:59.688Z,1002.58
2018-08-08T03:58:59.807Z,1002.53
2018-08-08T03:59:59.684Z,1002.53
2018-08-08T04:00:59.697Z,1002.46
2018-08-08T04:01:59.768Z,1002.45
2018-08-08T04:02:59.715Z,1002.39
2018-08-08T04:03:59.730Z,1002.30
2018-08-08T04:04:59.798Z,1002.24
2018-08-08T04:05:59.785Z,1002.22
2018-08-08T04:06:59.720Z,1002.23
2018-08-08T04:07:59.799Z,1002.21
2018-08-08T04:08:59.779Z,1002.21
2018-08-08T04:09:59.823Z,1002.20
2018-08-08T04:10:59.839Z,1002.17
2018-08-08T04:11:59.763Z,1002.02
2018-08-08T04:12:59.918Z,1001.97
2018-08-08T04:13:59.831Z,1001.91
2018-08-08T04:15:00.247Z,1002.00
2018-08-08T04:15:59.826Z,1002.10
2018-08-08T04:16:59.823Z,1002.16
2018-08-08T04:17:59.785Z,1002.28
2018-08-08T04:19:00.041Z,1002.37
2018-08-08T04:19:59.832Z,1002.54
2018-08-08T04:20:59.962Z,1002.67
2018-08-08T04:21:59.787Z,1002.78
2018-08-08T04:22:59.863Z,1002.87
2018-08-08T04:23:59.846Z,1002.97
2018-08-08T04:24:59.838Z,1003.03
2018-08-08T04:25:59.846Z,1003.11
2018-08-08T04:26:59.818Z,1003.15
2018-08-08T04:27:59.838Z,1003.23
2018-08-08T04:28:59.856Z,1003.31
2018-08-08T04:29:59.921Z,1003.38
2018-08-08T04:30:59.942Z,1003.46
2018-08-08T04:32:00.004Z,1003.53
2018-08-08T04:32:59.840Z,1003.62
2018-08-08T04:33:59.911Z,1003.67
2018-08-08T04:34:59.921Z,1003.71
2018-08-08T04:35:59.854Z,1003.72
2018-08-08T04:36:59.868Z,1003.73
2018-08-08T04:37:59.901Z,1003.76
2018-08-08T04:38:59.905Z,1003.77
2018-08-08T04:39:59.896Z,1003.80
2018-08-08T04:40:59.889Z,1003.76
2018-08-08T04:41:59.899Z,1003.71
2018-08-08T04:43:00.082Z,1003.57
2018-08-08T04:43:59.878Z,1003.46
2018-08-08T04:45:00.009Z,1003.36
2018-08-08T04:45:59.930Z,1003.32
2018-08-08T04:46:59.955Z,1003.26
2018-08-08T04:47:59.940Z,1003.17
2018-08-08T04:48:59.920Z,1003.13
2018-08-08T04:49:59.968Z,1003.07
2018-08-08T04:51:00.000Z,1003.23
2018-08-08T04:51:59.950Z,1003.38
2018-08-08T04:53:00.037Z,1003.31
2018-08-08T04:53:59.978Z,1003.27
2018-08-08T04:55:00.007Z,1003.28
2018-08-08T04:56:00.074Z,1003.18
2018-08-08T04:57:00.084Z,1003.12
2018-08-08T04:57:59.995Z,1003.16
2018-08-08T04:59:00.004Z,1003.30
2018-08-08T04:59:59.994Z,1003.52
2018-08-08T05:01:00.042Z,1003.66
2018-08-08T05:02:00.515Z,1003.80
2018-08-08T05:03:00.137Z,1003.94
2018-08-08T05:04:00.363Z,1004.04
2018-08-08T05:05:00.876Z,1004.09
2018-08-08T05:06:00.201Z,1004.05
2018-08-08T05:07:00.095Z,1004.10
2018-08-08T05:08:00.101Z,1004.10
2018-08-08T05:09:00.345Z,1004.14
2018-08-08T05:10:00.170Z,1004.19
2018-08-08T05:11:00.145Z,1004.17
2018-08-08T05:12:00.100Z,1004.17
2018-08-08T05:13:00.071Z,1004.21
2018-08-08T05:14:00.306Z,1004.25
2018-08-08T05:15:00.135Z,1004.23
2018-08-08T05:16:00.113Z,1004.23
2018-08-08T05:17:00.247Z,1004.22
2018-08-08T05:18:00.173Z,1004.18
2018-08-08T05:19:00.176Z,1004.16
2018-08-08T05:20:00.319Z,1004.27
2018-08-08T05:21:00.779Z,1004.34
2018-08-08T05:22:00.171Z,1004.36
2018-08-08T05:23:00.142Z,1004.39
2018-08-08T05:24:00.292Z,1004.41
2018-08-08T05:25:00.169Z,1004.45
2018-08-08T05:26:00.226Z,1004.47
2018-08-08T05:27:00.420Z,1004.50
2018-08-08T05:28:00.196Z,1004.58
2018-08-08T05:29:00.216Z,1004.66
2018-08-08T05:30:00.292Z,1004.69
2018-08-08T05:31:00.148Z,1004.74
2018-08-08T05:32:00.129Z,1004.78
2018-08-08T05:33:00.786Z,1004.73
2018-08-08T05:34:00.205Z,1004.71
2018-08-08T05:35:00.241Z,1004.71
2018-08-08T05:36:00.355Z,1004.69
2018-08-08T05:37:00.270Z,1004.69
2018-08-08T05:38:00.201Z,1004.74
2018-08-08T05:39:00.310Z,1004.75
2018-08-08T05:40:00.210Z,1004.72
2018-08-08T05:41:00.259Z,1004.73
2018-08-08T05:42:00.311Z,1004.76
2018-08-08T05:43:00.194Z,1004.78
2018-08-08T05:44:00.249Z,1004.77
2018-08-08T05:45:00.314Z,1004.85
2018-08-08T05:46:00.291Z,1004.82
2018-08-08T05:47:00.320Z,1004.85
2018-08-08T05:48:00.244Z,1004.88
2018-08-08T05:49:00.719Z,1004.84
2018-08-08T05:50:00.762Z,1004.92
2018-08-08T05:51:00.274Z,1004.90
2018-08-08T05:52:00.321Z,1004.85
2018-08-08T05:53:00.461Z,1004.84
2018-08-08T05:54:00.250Z,1004.85
2018-08-08T05:55:00.346Z,1004.84
2018-08-08T05:56:00.439Z,1004.79
2018-08-08T05:57:00.353Z,1004.77
2018-08-08T05:58:00.430Z,1004.77
2018-08-08T05:59:00.794Z,1004.70
2018-08-08T06:00:00.455Z,1004.69
2018-08-08T06:01:00.492Z,1004.69
2018-08-08T06:02:00.587Z,1004.69
2018-08-08T06:03:00.315Z,1004.66
2018-08-08T06:04:00.834Z,1004.70
2018-08-08T06:05:00.375Z,1004.69
2018-08-08T06:06:00.817Z,1004.64
2018-08-08T06:07:00.489Z,1004.63
2018-08-08T06:08:00.346Z,1004.62
2018-08-08T06:09:00.554Z,1004.60
2018-08-08T06:10:00.330Z,1004.53
2018-08-08T06:11:00.418Z,1004.55
2018-08-08T06:12:00.547Z,1004.54
2018-08-08T06:13:00.457Z,1004.54
2018-08-08T06:14:00.382Z,1004.52
2018-08-08T06:15:00.630Z,1004.55
2018-08-08T06:16:00.461Z,1004.56
2018-08-08T06:17:00.828Z,1004.61
2018-08-08T06:18:00.376Z,1004.59
2018-08-08T06:19:00.596Z,1004.61
2018-08-08T06:20:00.577Z,1004.56
2018-08-08T06:21:00.509Z,1004.63
2018-08-08T06:22:00.438Z,1004.64
2018-08-08T06:23:00.527Z,1004.62
2018-08-08T06:24:00.449Z,1004.63
2018-08-08T06:25:00.490Z,1004.62
2018-08-08T06:26:00.596Z,1004.64
2018-08-08T06:27:22.168Z,1004.60
2018-08-08T06:28:00.520Z,1004.65
2018-08-08T06:29:00.377Z,1004.66
2018-08-08T06:30:00.488Z,1004.74
2018-08-08T06:31:00.687Z,1004.84
2018-08-08T06:32:00.834Z,1004.91
2018-08-08T06:33:00.497Z,1004.95
2018-08-08T06:34:00.510Z,1004.92
2018-08-08T06:35:00.442Z,1004.88
2018-08-08T06:36:00.669Z,1004.84
2018-08-08T06:37:00.516Z,1004.81
2018-08-08T06:38:00.470Z,1004.71
2018-08-08T06:39:00.695Z,1004.56
2018-08-08T06:40:00.445Z,1004.54
2018-08-08T06:41:01.401Z,1004.45
2018-08-08T06:42:00.474Z,1004.28
2018-08-08T06:43:03.920Z,1004.22
2018-08-08T06:44:04.072Z,1004.26
2018-08-08T06:45:00.554Z,1004.33
2018-08-08T06:46:00.514Z,1004.38
2018-08-08T06:47:00.603Z,1004.52
2018-08-08T06:48:00.513Z,1004.57
2018-08-08T06:49:00.593Z,1004.48
2018-08-08T06:50:00.836Z,1004.46
2018-08-08T06:51:00.545Z,1004.44
2018-08-08T06:52:00.710Z,1004.49
2018-08-08T06:53:00.768Z,1004.60
2018-08-08T06:54:00.843Z,1004.67
2018-08-08T06:55:00.663Z,1004.71
2018-08-08T06:56:01.326Z,1004.83
2018-08-08T06:57:00.781Z,1004.88
2018-08-08T06:58:00.584Z,1004.95
2018-08-08T06:59:00.584Z,1005.00
2018-08-08T07:00:00.666Z,1005.02
2018-08-08T07:01:00.689Z,1004.98
2018-08-08T07:02:00.599Z,1004.97
2018-08-08T07:03:00.575Z,1004.99
2018-08-08T07:04:00.626Z,1004.92
2018-08-08T07:05:00.890Z,1004.84
2018-08-08T07:06:01.111Z,1004.74
2018-08-08T07:07:00.674Z,1004.71
2018-08-08T07:08:00.641Z,1004.69
2018-08-08T07:09:01.471Z,1004.68
2018-08-08T07:10:01.082Z,1004.59
2018-08-08T07:11:00.757Z,1004.58
2018-08-08T07:12:00.621Z,1004.57
2018-08-08T07:13:00.800Z,1004.61
2018-08-08T07:14:00.851Z,1004.63
2018-08-08T07:15:00.635Z,1004.57
2018-08-08T07:16:03.766Z,1004.55
2018-08-08T07:17:02.297Z,1004.54
2018-08-08T07:18:00.772Z,1004.52
2018-08-08T07:19:00.688Z,1004.54
2018-08-08T07:20:00.725Z,1004.55
2018-08-08T07:21:00.692Z,1004.56
2018-08-08T07:22:00.738Z,1004.59
2018-08-08T07:23:00.703Z,1004.58
2018-08-08T07:24:01.406Z,1004.57
2018-08-08T07:25:00.935Z,1004.60
2018-08-08T07:26:00.720Z,1004.55
2018-08-08T07:27:00.777Z,1004.58
2018-08-08T07:28:00.868Z,1004.54
2018-08-08T07:29:01.345Z,1004.52
2018-08-08T07:30:00.784Z,1004.50
2018-08-08T07:31:00.693Z,1004.51
2018-08-08T07:32:00.778Z,1004.53
2018-08-08T07:33:00.722Z,1004.55
2018-08-08T07:34:00.700Z,1004.58
2018-08-08T07:35:00.799Z,1004.54
2018-08-08T07:36:01.144Z,1004.48
2018-08-08T07:37:00.847Z,1004.49
2018-08-08T07:38:01.478Z,1004.47
2018-08-08T07:39:00.763Z,1004.51
2018-08-08T07:40:01.113Z,1004.44
2018-08-08T07:41:00.762Z,1004.45
2018-08-08T07:42:04.524Z,1004.49
2018-08-08T07:43:00.975Z,1004.41
2018-08-08T07:44:00.861Z,1004.41
2018-08-08T07:45:00.735Z,1004.33
2018-08-08T07:46:00.774Z,1004.32
2018-08-08T07:47:00.786Z,1004.32
2018-08-08T07:48:00.857Z,1004.30
2018-08-08T07:49:00.826Z,1004.29
2018-08-08T07:50:00.836Z,1004.28
2018-08-08T07:51:00.818Z,1004.27
2018-08-08T07:53:00.849Z,1004.21
2018-08-08T07:54:01.012Z,1004.20
2018-08-08T07:55:00.824Z,1004.20
2018-08-08T07:56:00.837Z,1004.25
2018-08-08T07:57:00.907Z,1004.31
2018-08-08T07:58:00.932Z,1004.33
2018-08-08T07:59:00.897Z,1004.38
2018-08-08T08:00:00.816Z,1004.39
2018-08-08T08:01:01.374Z,1004.42
2018-08-08T08:02:00.909Z,1004.42
2018-08-08T08:03:04.478Z,1004.47
2018-08-08T08:05:33.952Z,1004.68
2018-08-08T08:06:33.921Z,1004.76
2018-08-08T08:07:33.924Z,1004.81
2018-08-08T08:08:33.931Z,1004.84
2018-08-08T08:09:34.334Z,1004.99
2018-08-08T08:10:33.932Z,1005.38
2018-08-08T08:11:34.085Z,1005.68
2018-08-08T08:12:33.953Z,1005.83
2018-08-08T08:13:33.952Z,1005.96
2018-08-08T08:14:33.983Z,1005.84
2018-08-08T08:15:33.965Z,1005.64
2018-08-08T08:16:33.958Z,1005.55
2018-08-08T08:17:33.985Z,1005.32
2018-08-08T08:18:33.991Z,1005.02
2018-08-08T08:19:33.998Z,1004.87
2018-08-08T08:20:34.002Z,1004.69
2018-08-08T08:21:33.995Z,1004.85
2018-08-08T08:22:34.002Z,1004.88
2018-08-08T08:23:34.016Z,1004.82
2018-08-08T08:24:34.889Z,1004.75
2018-08-08T08:25:34.034Z,1004.74
2018-08-08T08:26:34.054Z,1004.66
2018-08-08T08:27:34.034Z,1004.92
2018-08-08T08:28:34.044Z,1005.14
2018-08-08T08:29:34.049Z,1005.18
2018-08-08T08:30:34.054Z,1005.33
2018-08-08T08:31:34.085Z,1005.19
2018-08-08T08:32:34.068Z,1005.42
2018-08-08T08:33:34.092Z,1005.47
2018-08-08T08:34:34.900Z,1004.79
2018-08-08T08:35:34.124Z,1004.79
2018-08-08T08:36:34.092Z,1006.22
2018-08-08T08:37:34.112Z,1005.06
2018-08-08T08:38:34.130Z,1005.43
2018-08-08T08:39:34.116Z,1006.38
2018-08-08T08:40:34.141Z,1006.31
2018-08-08T08:41:34.138Z,1007.13
2018-08-08T08:42:34.159Z,1006.10
2018-08-08T08:43:34.234Z,1011.39
2018-08-08T08:44:34.157Z,1014.82
2018-08-08T08:45:34.943Z,1005.83
2018-08-08T08:46:34.178Z,1007.58
2018-08-08T08:47:34.165Z,1017.56
2018-08-08T08:48:34.212Z,1005.52
2018-08-08T08:49:34.277Z,1006.45
2018-08-08T08:50:34.208Z,1005.11
2018-08-08T08:51:34.226Z,1005.14
2018-08-08T08:52:34.255Z,1005.01
2018-08-08T08:53:34.262Z,1004.93
2018-08-08T08:54:34.231Z,1004.86
2018-08-08T08:55:34.250Z,1004.95
2018-08-08T08:56:34.252Z,1005.08
2018-08-08T08:57:34.254Z,1006.33
2018-08-08T08:58:34.259Z,1005.00
2018-08-08T08:59:34.297Z,1005.02
2018-08-08T09:00:34.288Z,1005.06
2018-08-08T09:01:34.281Z,1005.15
2018-08-08T09:02:34.413Z,1005.09
2018-08-08T09:03:34.322Z,1005.13
2018-08-08T09:04:34.307Z,1005.15
2018-08-08T09:05:34.326Z,1005.19
2018-08-08T09:06:34.329Z,1005.34
2018-08-08T09:07:34.383Z,1005.33
2018-08-08T09:08:34.330Z,1005.31
2018-08-08T09:09:34.385Z,1005.23
2018-08-08T09:10:34.345Z,1005.23
2018-08-08T09:11:34.408Z,1005.31
2018-08-08T09:12:34.964Z,1005.42
2018-08-08T09:13:34.365Z,1005.31
2018-08-08T09:14:34.381Z,1005.26
2018-08-08T09:15:34.407Z,1005.19
2018-08-08T09:16:34.922Z,1005.29
2018-08-08T09:17:34.418Z,1005.32
2018-08-08T09:18:34.394Z,1005.34
2018-08-08T09:19:34.422Z,1005.55
2018-08-08T09:20:34.407Z,1005.56
2018-08-08T09:21:34.439Z,1005.71
2018-08-08T09:22:34.432Z,1005.56
2018-08-08T09:23:34.427Z,1005.79
2018-08-08T09:24:34.440Z,1005.72
2018-08-08T09:25:34.487Z,1005.71
2018-08-08T09:26:34.440Z,1006.01
2018-08-08T09:27:34.467Z,1006.08
2018-08-08T09:28:34.487Z,1005.78
2018-08-08T09:29:34.485Z,1005.66
2018-08-08T09:30:34.562Z,1005.92
2018-08-08T09:31:34.490Z,1005.54
2018-08-08T09:32:34.489Z,1005.70
2018-08-08T09:33:34.520Z,1005.87
2018-08-08T09:34:34.529Z,1005.80
2018-08-08T09:35:34.510Z,1005.44
2018-08-08T09:36:34.507Z,1005.47
2018-08-08T09:37:34.536Z,1005.64
2018-08-08T09:38:34.541Z,1006.04
2018-08-08T09:39:34.620Z,1005.83
2018-08-08T09:40:34.606Z,1005.68
2018-08-08T09:41:35.435Z,1005.70
2018-08-08T09:42:34.561Z,1005.56
2018-08-08T09:43:35.441Z,1005.60
2018-08-08T09:44:34.576Z,1005.71
2018-08-08T09:45:34.580Z,1005.77
2018-08-08T09:46:34.615Z,1005.74
2018-08-08T09:47:34.598Z,1005.67
2018-08-08T09:48:34.650Z,1005.67
2018-08-08T09:49:34.612Z,1005.65
2018-08-08T09:50:34.647Z,1005.67
2018-08-08T09:51:34.637Z,1005.76
2018-08-08T09:52:34.636Z,1005.77
2018-08-08T09:53:34.628Z,1005.83
2018-08-08T09:54:34.651Z,1005.93
2018-08-08T09:55:34.643Z,1005.85
2018-08-08T09:56:35.444Z,1005.84
2018-08-08T09:57:34.670Z,1005.92
2018-08-08T09:58:34.673Z,1005.98
2018-08-08T09:59:34.687Z,1006.00
2018-08-08T10:00:34.699Z,1005.98
2018-08-08T10:01:34.692Z,1005.98
2018-08-08T10:02:34.697Z,1005.93
2018-08-08T10:03:35.707Z,1005.92
2018-08-08T10:04:34.708Z,1006.01
2018-08-08T10:05:34.735Z,1005.94
2018-08-08T10:06:34.733Z,1005.95
2018-08-08T10:07:34.736Z,1005.95
2018-08-08T10:08:34.737Z,1005.99
2018-08-08T10:09:34.741Z,1006.01
2018-08-08T10:10:34.747Z,1005.95
2018-08-08T10:11:35.465Z,1005.93
2018-08-08T10:12:34.784Z,1005.91
2018-08-08T10:13:34.781Z,1006.02
2018-08-08T10:14:34.869Z,1006.12
2018-08-08T10:15:34.783Z,1006.08
2018-08-08T10:16:34.832Z,1006.07
2018-08-08T10:17:34.789Z,1006.13
2018-08-08T10:18:34.825Z,1006.27
2018-08-08T10:19:34.816Z,1006.11
2018-08-08T10:20:34.862Z,1006.12
2018-08-08T10:21:34.848Z,1006.08
2018-08-08T10:22:34.836Z,1006.10
2018-08-08T10:23:34.853Z,1006.08
2018-08-08T10:24:34.897Z,1006.11
2018-08-08T10:25:34.842Z,1006.12
2018-08-08T10:26:34.888Z,1006.24
2018-08-08T10:27:35.473Z,1006.24
2018-08-08T10:28:34.869Z,1006.34
2018-08-08T10:29:34.904Z,1006.31
2018-08-08T10:30:34.894Z,1006.29
2018-08-08T10:31:35.553Z,1006.31
2018-08-08T10:32:35.563Z,1006.36
2018-08-08T10:33:35.021Z,1006.39
2018-08-08T10:34:34.905Z,1006.42
2018-08-08T10:35:34.920Z,1006.60
2018-08-08T10:36:35.051Z,1006.67
2018-08-08T10:37:35.966Z,1006.46
2018-08-08T10:38:34.930Z,1006.33
2018-08-08T10:39:34.956Z,1006.33
2018-08-08T10:40:34.974Z,1006.31
2018-08-08T10:41:34.947Z,1006.41
2018-08-08T10:42:34.953Z,1006.44
2018-08-08T10:43:34.985Z,1006.54
2018-08-08T10:44:35.047Z,1006.50
2018-08-08T10:45:34.994Z,1006.46
2018-08-08T10:46:34.975Z,1006.51
2018-08-08T10:47:35.974Z,1006.57
2018-08-08T10:48:34.998Z,1006.48
2018-08-08T10:49:34.996Z,1006.40
2018-08-08T10:50:35.014Z,1006.38
2018-08-08T10:51:35.019Z,1006.36
2018-08-08T10:52:35.022Z,1006.31
2018-08-08T10:53:35.115Z,1006.35
2018-08-08T10:54:35.057Z,1006.39
2018-08-08T10:55:35.084Z,1006.47
2018-08-08T10:56:35.071Z,1006.40
2018-08-08T10:57:35.107Z,1006.36
2018-08-08T10:58:35.065Z,1006.48
2018-08-08T10:59:35.156Z,1006.60
2018-08-08T11:00:35.075Z,1006.48
2018-08-08T11:01:35.140Z,1006.40
2018-08-08T11:02:35.346Z,1006.38
2018-08-08T11:03:35.173Z,1006.38
2018-08-08T11:04:37.044Z,1006.49
2018-08-08T11:05:35.155Z,1006.48
2018-08-08T11:06:35.113Z,1006.51
2018-08-08T11:07:35.126Z,1006.52
2018-08-08T11:08:35.132Z,1006.47
2018-08-08T11:09:35.139Z,1006.47
2018-08-08T11:10:35.137Z,1006.46
2018-08-08T11:11:35.239Z,1006.50
2018-08-08T11:12:35.155Z,1006.46
2018-08-08T11:13:35.171Z,1006.50
2018-08-08T11:14:35.168Z,1006.54
2018-08-08T11:15:35.168Z,1006.54
2018-08-08T11:16:35.246Z,1006.54
2018-08-08T11:17:35.187Z,1006.63
2018-08-08T11:18:35.326Z,1006.56
2018-08-08T11:19:35.195Z,1006.62
2018-08-08T11:20:35.203Z,1006.63
2018-08-08T11:21:35.207Z,1006.62
2018-08-08T11:22:35.236Z,1006.65
2018-08-08T11:23:35.246Z,1006.69
2018-08-08T11:24:35.297Z,1006.69
2018-08-08T11:25:35.246Z,1006.67
2018-08-08T11:26:35.318Z,1006.74
2018-08-08T11:27:35.253Z,1006.72
2018-08-08T11:28:35.445Z,1006.76
2018-08-08T11:29:35.259Z,1006.78
2018-08-08T11:30:35.272Z,1006.78
2018-08-08T11:31:35.347Z,1006.78
2018-08-08T11:32:35.286Z,1006.79
2018-08-08T11:33:35.338Z,1006.84
2018-08-08T11:34:35.318Z,1006.79
2018-08-08T11:35:35.289Z,1006.79
2018-08-08T11:36:35.997Z,1006.84
2018-08-08T11:37:35.518Z,1006.80
2018-08-08T11:38:35.314Z,1006.82
2018-08-08T11:39:35.324Z,1006.85
2018-08-08T11:40:35.331Z,1006.94
2018-08-08T11:41:35.340Z,1006.99
2018-08-08T11:42:35.342Z,1006.99
2018-08-08T11:43:35.344Z,1007.00
2018-08-08T11:44:35.350Z,1006.99
2018-08-08T11:45:35.361Z,1006.99
2018-08-08T11:46:36.059Z,1007.00
2018-08-08T11:47:35.474Z,1007.03
2018-08-08T11:48:35.382Z,1007.03
2018-08-08T11:49:35.462Z,1007.01
2018-08-08T11:50:35.390Z,1007.05
2018-08-08T11:51:36.021Z,1007.12
2018-08-08T11:52:35.396Z,1007.09
2018-08-08T11:53:35.410Z,1007.07
2018-08-08T11:54:35.478Z,1007.09
2018-08-08T11:55:35.411Z,1007.09
2018-08-08T11:56:35.642Z,1007.13
2018-08-08T11:57:35.420Z,1007.12
2018-08-08T11:58:35.447Z,1007.17
2018-08-08T11:59:35.458Z,1007.25
2018-08-08T12:00:35.437Z,1007.20
2018-08-08T12:01:35.451Z,1007.19
2018-08-08T12:02:35.470Z,1007.16
2018-08-08T12:03:35.503Z,1007.15
2018-08-08T12:04:35.480Z,1007.17
2018-08-08T12:05:35.480Z,1007.19
2018-08-08T12:06:35.498Z,1007.12
2018-08-08T12:07:35.487Z,1007.18
2018-08-08T12:08:35.490Z,1007.19